• Join FlightAware (Why Join?)
  • Login
  • US Flag 
01:46AM EST


 

Airport Tracker/Info


-or-


 

Live Flight TrackerFlight Track Log ✈ N114WE ✈ 10-Nov-2013 ✈ KMKC - KHQZ

Flight Track Log - Related Links

Times and Time Zones

All times are in EST time to prevent confusion due to time zone crossing. See the N114WE flight status page for this flight to view local times or setup timezone preferences in your user account.

Time Position Orientation Groundspeed Altitude Reporting Facility
EST Latitude Longitude Course Direction KTS MPH feet Rate Location/Type
02:57PM 39.1167 -94.6000 218° Southwest 97 112 1,300  Level Kansas City TRACON
02:57PM 39.1000 -94.6167 218° Southwest 111 128 2,000 900 Climbing Kansas City TRACON
02:58PM 39.0667 -94.6500 218° Southwest 136 157 2,800 840 Climbing Kansas City TRACON
02:59PM 39.0500 -94.7000 247° West 141 162 3,700 780 Climbing Kansas City TRACON
03:00PM 39.0375 -94.7128 218° Southwest 137 158 4,000 540 Climbing Kansas City Center
03:01PM 39.0039 -94.7328 205° Southwest 140 161 4,600 660 Climbing Kansas City Center
03:02PM 38.9642 -94.7472 196° South 131 151 5,400 720 Climbing Kansas City Center
03:03PM 38.9308 -94.7594 196° South 130 150 6,100 720 Climbing Kansas City Center
03:04PM 38.8917 -94.7703 192° South 128 147 6,900 660 Climbing Kansas City Center
03:05PM 38.8600 -94.7803 194° South 123 142 7,500 660 Climbing Kansas City Center
03:06PM 38.8236 -94.7928 195° South 121 139 8,300 600 Climbing Kansas City Center
03:07PM 38.7928 -94.8022 193° South 119 137 8,800 540 Climbing Kansas City Center
03:08PM 38.7561 -94.8122 192° South 120 138 9,500 540 Climbing Kansas City Center
03:09PM 38.7250 -94.8225 194° South 120 138 10,000 240 Climbing Kansas City Center
03:10PM 38.6825 -94.8350 193° South 141 162 10,000  Level Kansas City Center
03:11PM 38.6447 -94.8456 192° South 145 167 10,000  Level Kansas City Center
03:12PM 38.6056 -94.8581 194° South 151 174 10,000  Level Kansas City Center
03:13PM 38.5608 -94.8703 192° South 147 169 10,000  Level Kansas City Center
03:14PM 38.5219 -94.8831 194° South 150 173 10,000  Level Kansas City Center
03:15PM 38.4775 -94.8956 192° South 146 168 10,000  Level Kansas City Center
03:16PM 38.4386 -94.9075 194° South 151 174 10,000  Level Kansas City Center
03:17PM 38.3944 -94.9203 193° South 144 166 10,000  Level Kansas City Center
03:18PM 38.3553 -94.9322 193° South 149 171 10,000  Level Kansas City Center
03:19PM 38.3108 -94.9458 194° South 146 168 10,000  Level Kansas City Center
03:21PM 38.2722 -94.9564 192° South 147 169 10,000  Level Kansas City Center
03:22PM 38.2267 -94.9678 191° South 149 171 10,000  Level Kansas City Center
03:23PM 38.1881 -94.9786 192° South 148 170 10,000  Level Kansas City Center
03:24PM 38.1408 -94.9933 194° South 155 178 10,000  Level Kansas City Center
03:25PM 38.1031 -95.0064 195° South 150 173 10,000  Level Kansas City Center
03:26PM 38.0572 -95.0181 191° South 150 173 10,000  Level Kansas City Center
03:27PM 38.0181 -95.0303 194° South 150 173 10,000  Level Kansas City Center
03:28PM 37.9781 -95.0408 192° South 152 175 10,000  Level Kansas City Center
03:29PM 37.9311 -95.0531 192° South 154 177 10,000  Level Kansas City Center
03:30PM 37.8928 -95.0647 194° South 150 173 10,000  Level Kansas City Center
03:31PM 37.8475 -95.0769 192° South 149 171 10,000  Level Kansas City Center
03:32PM 37.8089 -95.0911 196° South 149 171 10,000  Level Kansas City Center
03:33PM 37.7639 -95.1047 193° South 149 171 10,000  Level Kansas City Center
03:34PM 37.7233 -95.1144 191° South 151 174 10,000  Level Kansas City Center
03:35PM 37.6833 -95.1272 194° South 149 171 10,000  Level Kansas City Center
03:36PM 37.6422 -95.1383 192° South 151 174 10,000  Level Kansas City Center
03:37PM 37.5936 -95.1525 193° South 149 171 10,000  Level Kansas City Center
03:38PM 37.5544 -95.1628 192° South 145 167 10,000  Level Kansas City Center
03:39PM 37.5136 -95.1742 192° South 149 171 10,000  Level Kansas City Center
03:40PM 37.4733 -95.1867 194° South 149 171 10,000  Level Kansas City Center
03:41PM 37.4319 -95.1967 191° South 150 173 10,000  Level Kansas City Center
03:42PM 37.3914 -95.2086 193° South 150 173 10,000  Level Kansas City Center
03:43PM 37.3508 -95.2217 194° South 149 171 10,000  Level Kansas City Center
03:44PM 37.3008 -95.2369 194° South 153 176 10,000  Level Kansas City Center
03:45PM 37.2597 -95.2486 193° South 153 176 10,000  Level Kansas City Center
03:46PM 37.2211 -95.2589 192° South 144 166 10,000  Level Kansas City Center
03:47PM 37.1797 -95.2706 193° South 150 173 10,000  Level Kansas City Center
03:48PM 37.1394 -95.2828 194° South 149 171 10,000  Level Kansas City Center
03:49PM 37.0994 -95.2961 195° South 148 170 10,000  Level Kansas City Center
03:51PM 37.0506 -95.3097 193° South 149 171 10,000  Level Kansas City Center
03:52PM 37.0097 -95.3222 194° South 150 173 10,000  Level Kansas City Center
03:53PM 36.9689 -95.3322 191° South 150 173 10,000  Level Kansas City Center
03:54PM 36.9258 -95.3450 193° South 154 177 10,000  Level Kansas City Center
03:55PM 36.8850 -95.3564 193° South 153 176 10,000 -60 Level Kansas City Center
03:56PM 36.8444 -95.3675 192° South 150 173 9,900 -60 Descending Kansas City Center
03:57PM 36.8036 -95.3794 193° South 150 173 9,900  Level Kansas City Center
03:58PM 36.7544 -95.3936 193° South 152 175 9,900  Level Kansas City Center
03:58PM 36.7544 -95.3931 90° East 150 173 9,900  Level Kansas City Center
03:59PM 36.7133 -95.4050 193° South 150 173 9,900  Level Kansas City Center
04:00PM 36.6719 -95.4167 193° South 151 174 9,900  Level Kansas City Center
04:01PM 36.6317 -95.4286 193° South 151 174 9,900  Level Kansas City Center
04:01PM 36.6317 -95.4289 270° West 150 173 9,900  Level Kansas City Center
04:02PM 36.5906 -95.4394 192° South 153 176 9,900  Level Kansas City Center
04:02PM 36.5908 -95.4400 302° West 149 171 9,900  Level Kansas City Center
04:03PM 36.5494 -95.4503 191° South 153 176 9,900  Level Kansas City Center
04:03PM 36.5478 -95.4519 219° Southwest 155 178 9,900  Level Kansas City Center
04:04PM 36.5044 -95.4642 193° South 153 176 9,900  Level Kansas City Center
04:04PM 36.4983 -95.4661 194° South 153 176 9,900  Level Kansas City Center
04:05PM 36.4614 -95.4753 191° South 157 181 9,900  Level Kansas City Center
04:05PM 36.4567 -95.4781 205° Southwest 155 178 9,900  Level Kansas City Center
04:07PM 36.3797 -95.4994 193° South 157 181 9,900  Level Kansas City Center
04:07PM 36.3722 -95.5017 193° South 159 183 9,900  Level Kansas City Center
04:08PM 36.3367 -95.5128 194° South 157 181 9,900  Level Kansas City Center
04:08PM 36.3217 -95.5153 188° South 156 180 9,900  Level Kansas City Center
04:09PM 36.2936 -95.5239 194° South 160 184 9,900  Level Kansas City Center
04:09PM 36.2775 -95.5281 192° South 161 185 9,900  Level Kansas City Center
04:10PM 36.2506 -95.5350 192° South 159 183 9,900  Level Kansas City Center
04:10PM 36.2344 -95.5397 193° South 160 184 9,900  Level Kansas City Center
04:11PM 36.2056 -95.5486 194° South 161 185 9,900  Level Kansas City Center
04:11PM 36.1911 -95.5514 189° South 159 183 9,900  Level Kansas City Center
04:12PM 36.1583 -95.5603 192° South 161 185 9,900  Level Kansas City Center
04:12PM 36.1472 -95.5639 195° South 161 185 9,900  Level Kansas City Center
04:13PM 36.1156 -95.5739 194° South 161 185 9,900  Level Kansas City Center
04:13PM 36.1039 -95.5753 185° South 160 184 9,900  Level Kansas City Center
04:14PM 36.0725 -95.5847 194° South 161 185 9,900  Level Kansas City Center
04:14PM 36.0606 -95.5878 192° South 160 184 9,900  Level Kansas City Center
04:15PM 36.0294 -95.5981 195° South 159 183 9,900  Level Kansas City Center
04:15PM 36.0089 -95.6017 188° South 159 183 9,900  Level Kansas City Center
04:16PM 35.9864 -95.6092 195° South 158 182 9,900  Level Kansas City Center
04:16PM 35.9658 -95.6139 191° South 159 183 9,900  Level Kansas City Center
04:17PM 35.9414 -95.6228 196° South 160 184 9,900  Level Kansas City Center
04:17PM 35.9217 -95.6256 187° South 159 183 9,900  Level Kansas City Center
04:18PM 35.8983 -95.6336 196° South 160 184 9,900  Level Kansas City Center
04:18PM 35.8783 -95.6378 190° South 159 183 9,900  Level Kansas City Center
04:19PM 35.8511 -95.6453 193° South 160 184 9,900  Level Kansas City Center
04:19PM 35.8347 -95.6497 192° South 160 184 9,900  Level Kansas City Center
04:20PM 35.8081 -95.6586 195° South 160 184 9,900  Level Kansas City Center
04:20PM 35.7908 -95.6614 187° South 160 184 9,900  Level Kansas City Center
04:22PM 35.7394 -95.6756 193° South 159 183 9,900  Level Kansas City Center
04:23PM 35.6964 -95.6881 193° South 159 183 9,900  Level Kansas City Center
04:24PM 35.6539 -95.6992 192° South 157 181 9,900  Level Kansas City Center
04:25PM 35.6108 -95.7117 193° South 158 182 9,900  Level Kansas City Center
04:26PM 35.5681 -95.7233 193° South 158 182 9,900  Level Kansas City Center
04:27PM 35.5250 -95.7347 192° South 158 182 9,900  Level Kansas City Center
04:28PM 35.4822 -95.7464 193° South 158 182 9,900  Level Kansas City Center
04:29PM 35.4311 -95.7600 192° South 157 181 9,900  Level Kansas City Center
04:30PM 35.3831 -95.7789 198° South 159 183 9,900  Level Fort Worth Center
04:31PM 35.3394 -95.7875 189° South 159 183 9,900  Level Fort Worth Center
04:32PM 35.2978 -95.7958 189° South 159 183 9,900  Level Fort Worth Center
04:33PM 35.2522 -95.8094 194° South 159 183 9,900  Level Fort Worth Center
04:34PM 35.2106 -95.8228 195° South 159 183 9,900  Level Fort Worth Center
04:35PM 35.1669 -95.8339 192° South 159 183 9,900  Level Fort Worth Center
04:36PM 35.1253 -95.8472 195° South 159 183 9,900  Level Fort Worth Center
04:37PM 35.0858 -95.8558 190° South 159 183 9,900  Level Fort Worth Center
04:38PM 35.0442 -95.8692 195° South 159 183 9,900  Level Fort Worth Center
04:39PM 35.0006 -95.8800 192° South 159 183 9,900  Level Fort Worth Center
04:40PM 34.9486 -95.8911 190° South 170 196 9,900  Level Fort Worth Center
04:41PM 34.9069 -95.9044 195° South 170 196 9,900  Level Fort Worth Center
04:42PM 34.8656 -95.9156 192° South 159 183 9,900  Level Fort Worth Center
04:43PM 34.8217 -95.9264 191° South 159 183 9,900  Level Fort Worth Center
04:44PM 34.7803 -95.9397 195° South 159 183 9,900  Level Fort Worth Center
04:45PM 34.7367 -95.9506 192° South 159 183 9,900  Level Fort Worth Center
04:46PM 34.6969 -95.9589 190° South 159 183 9,900  Level Fort Worth Center
04:47PM 34.6533 -95.9722 194° South 159 183 9,900  Level Fort Worth Center
04:48PM 34.6097 -95.9856 194° South 165 190 9,900  Level Fort Worth Center
04:49PM 34.5681 -95.9961 192° South 159 183 9,900  Level Fort Worth Center
04:50PM 34.5264 -96.0069 192° South 159 183 9,900  Level Fort Worth Center
04:51PM 34.4806 -96.0178 191° South 165 190 9,900  Level Fort Worth Center
04:52PM 34.4369 -96.0311 194° South 160 184 9,900  Level Fort Worth Center
04:53PM 34.3956 -96.0444 195° South 160 184 9,900  Level Fort Worth Center
04:54PM 34.3517 -96.0525 189° South 160 184 9,900  Level Fort Worth Center
04:55PM 34.3100 -96.0633 192° South 160 184 9,900  Level Fort Worth Center
04:56PM 34.2664 -96.0767 194° South 160 184 9,900  Level Fort Worth Center
04:57PM 34.2228 -96.0847 189° South 160 184 9,900  Level Fort Worth Center
04:58PM 34.1750 -96.1031 198° South 166 191 9,900  Level Fort Worth Center
04:59PM 34.1333 -96.1114 189° South 160 184 9,900  Level Fort Worth Center
05:00PM 34.1000 -96.1192 191° South 160 184 9,900 -180 Level Fort Worth Center
05:01PM 34.0478 -96.1325 192° South 160 184 9,600 -360 Descending Fort Worth Center
05:02PM 34.0000 -96.1458 193° South 165 190 9,200 -540 Descending Fort Worth Center
05:03PM 33.9500 -96.1542 188° South 170 196 8,600 -600 Descending Fort Worth Center
05:04PM 33.9022 -96.1697 195° South 181 208 8,000 -600 Descending Fort Worth Center
05:05PM 33.8522 -96.1831 192° South 181 208 7,500 -480 Descending Fort Worth Center
05:06PM 33.8086 -96.1961 194° South 181 208 7,100 -540 Descending Fort Worth Center
05:07PM 33.7544 -96.2094 192° South 181 208 6,500 -540 Descending Fort Worth Center
05:08PM 33.7086 -96.2200 191° South 181 208 6,100 -300 Descending Fort Worth Center
05:09PM 33.6586 -96.2331 192° South 181 208 6,000 -120 Descending Fort Worth Center
05:10PM 33.6192 -96.2461 195° South 181 208 5,900  Descending Fort Worth Center
05:11PM 33.5692 -96.2592 192° South 176 203 6,000  Climbing Fort Worth Center
05:12PM 33.5275 -96.2697 192° South 176 203 5,900 -60 Descending Fort Worth Center
05:13PM 33.4794 -96.2803 190° South 171 197 5,900  Level Fort Worth Center
05:14PM 33.4400 -96.2908 193° South 171 197 5,900  Level Fort Worth Center
05:15PM 33.3922 -96.3039 193° South 166 191 5,900  Level Fort Worth Center
05:16PM 33.3506 -96.3142 192° South 160 184 5,900  Level Fort Worth Center
05:17PM 33.3025 -96.3272 193° South 160 184 5,900  Level Fort Worth Center
05:18PM 33.2631 -96.3403 195° South 165 190 5,900 -300 Level Fort Worth Center
05:19PM 33.2194 -96.3756 214° Southwest 167 192 5,300 -480 Descending Fort Worth Center
05:20PM 33.1833 -96.3833 190° South 181 208 5,100 -180 Descending Dallas / Fort Worth TRACON
05:21PM 33.1333 -96.4000 196° South 167 192 5,000 -420 Descending Dallas / Fort Worth TRACON
05:22PM 33.1000 -96.4167 203° Southwest 182 209 4,300 -600 Descending Dallas / Fort Worth TRACON
05:23PM 33.0500 -96.4333 196° South 176 203 3,800 -360 Descending Dallas / Fort Worth TRACON
05:24PM 32.9906 -96.4550 197° South 177 204 3,600 -180 Descending Fort Worth Center
05:29PM 32.9252 -96.4707 191° South  Level FlightAware Approximate
05:36PM 32.7470 -96.5304 194° South  Level Estimated
05:37PM 32.7470 -96.5304 194° South  Level Estimated
05:38PM 32.7470 -96.5304 194° South  Level Estimated
05:39PM 32.7470 -96.5304 194° South  Level Estimated
05:40PM 32.7470 -96.5304 194° South  Level Estimated
05:41PM 32.7470 -96.5304 194° South  Level Estimated
05:42PM 32.7470 -96.5304 194° South  Level Estimated
05:43PM 32.7470 -96.5304 194° South  Level Estimated
05:44PM 32.7470 -96.5304 194° South  Level Estimated
05:45PM 32.7470 -96.5304 194° South  Level Estimated
05:46PM 32.7470 -96.5304 194° South  Level Estimated
05:47PM 32.7470 -96.5304 194° South  Level Estimated